Portada
METAR-TAF:

METAR-TAF

Aeropuertos :

Miho-Yonago, Japón

latitud: 35-29N, longitud: 133-15E, altitud: 6 m

Observación

El informe se hizo hace 42 minutos, a las 01:00 UTC
Viento 3 kt del oeste, variando entre suroeste y norte-noroeste
Temperatura 24°C
Humedad 57%
Presión 1005 hPa
Visibilidad 10 km o más
Escasas nubes a una altura de 5000 ft
Cielo nuboso a una altura de 23000 ft

METAR: RJOH 030100Z 26003KT 230V330 9999 FEW050 BKN230 24/15 Q1005

Hora: 10:42 (01:42 UTC)

Pronóstico

El informe se hizo hace 2 horas y 34 minutos, a las 23:08 UTC
Pronóstico válido del 03 a las 00 UTC al 04 a las 06 UTC
Viento 11 kt del oeste
Visibilidad 10 km o más
Escasas nubes a una altura de 3000 ft
Evolucionando progresivamente
del 03 a las 09 UTC al 03 a las 11 UTC
Viento 5 kt del sur
Evolucionando progresivamente
del 04 a las 00 UTC al 04 a las 03 UTC
Viento 18 kt del oeste

TAF: RJOH 022308Z 0300/0406 26011KT 9999 FEW030 BECMG 0309/0311 19005KT BECMG 0400/0403 26018KT

Observaciones y pronósticos meteorológicos de más de 4000 aeropuertos (mensajes METAR y TAF).

Los puntos amarillos y rojos representan las estaciones disponibles.

Ponga el ratón en el punto deseado para ver el nombre de la estación.

Haga clic para ver las observaciones y los pronósticos meteorológicos.

Para cambiar el mapa : haga clic en los botones verdes con una cruz de color negro para hacer un zoom, en el botón verde con un guión para alejar o en las flechas verdes para mapas adyacentes.


METAR-TAF: